createdAt,value
2022-12-08T00:00:52.994Z,94.40
2022-12-08T00:03:21.831Z,94.40
2022-12-08T00:06:09.967Z,94.50
2022-12-08T00:08:57.458Z,94.70
2022-12-08T00:11:25.986Z,94.80
2022-12-08T00:13:56.919Z,94.80
2022-12-08T00:16:28.681Z,94.80
2022-12-08T00:19:07.482Z,94.60
2022-12-08T00:21:36.226Z,94.40
2022-12-08T00:24:04.831Z,94.40
2022-12-08T00:26:32.940Z,94.20
2022-12-08T00:29:03.983Z,94.00
2022-12-08T00:31:43.135Z,94.10
2022-12-08T00:34:17.605Z,94.40
2022-12-08T00:36:47.580Z,94.60
2022-12-08T00:39:18.973Z,94.60
2022-12-08T00:42:10.176Z,94.70
2022-12-08T00:44:39.236Z,94.60
2022-12-08T00:47:09.172Z,94.20
2022-12-08T00:49:39.076Z,94.00
2022-12-08T00:52:07.306Z,93.80
2022-12-08T00:54:35.728Z,93.60
2022-12-08T00:57:05.437Z,93.60
2022-12-08T00:59:37.654Z,93.60
2022-12-08T01:02:05.896Z,93.60
2022-12-08T01:04:38.898Z,93.50
2022-12-08T01:07:13.363Z,93.40
2022-12-08T01:12:36.172Z,93.40
2022-12-08T01:15:15.104Z,93.50
2022-12-08T01:17:59.180Z,93.40
2022-12-08T01:20:43.394Z,93.50
2022-12-08T01:23:23.030Z,93.60
2022-12-08T01:25:56.764Z,93.60
2022-12-08T01:28:26.663Z,93.80
2022-12-08T01:30:58.930Z,94.00
2022-12-08T01:33:48.298Z,93.90
2022-12-08T01:39:20.887Z,93.90
2022-12-08T01:44:46.626Z,93.70
2022-12-08T01:47:56.087Z,93.60
2022-12-08T01:50:34.887Z,93.70
2022-12-08T01:53:11.529Z,93.60
2022-12-08T01:55:51.236Z,93.60
2022-12-08T01:58:31.794Z,93.60
2022-12-08T02:01:00.321Z,93.50
2022-12-08T02:03:29.887Z,93.60
2022-12-08T06:24:34.428Z,93.10
2022-12-08T06:33:50.993Z,92.80
2022-12-08T06:36:29.853Z,92.80
2022-12-08T06:42:44.498Z,92.80
2022-12-08T06:58:52.689Z,93.10
2022-12-08T07:08:07.281Z,93.10
2022-12-08T07:10:35.500Z,93.20
2022-12-08T07:19:47.260Z,93.00
2022-12-08T07:22:15.190Z,92.80
2022-12-08T07:24:42.906Z,92.80
2022-12-08T07:27:10.781Z,92.90
2022-12-08T07:29:38.452Z,92.90
2022-12-08T07:32:07.636Z,92.80
2022-12-08T07:34:35.301Z,92.70
2022-12-08T07:40:20.182Z,92.60
2022-12-08T07:42:48.414Z,92.70
2022-12-08T07:45:16.250Z,92.80
2022-12-08T07:47:44.179Z,93.10
2022-12-08T07:50:12.356Z,93.10
2022-12-08T07:55:57.233Z,93.10
2022-12-08T07:58:25.964Z,92.90
2022-12-08T08:00:54.031Z,92.90
2022-12-08T08:03:22.684Z,92.90
2022-12-08T08:05:53.439Z,92.80
2022-12-08T08:08:21.302Z,92.70
2022-12-08T08:10:51.077Z,92.70
2022-12-08T08:13:18.633Z,92.70
2022-12-08T08:15:46.421Z,92.70
2022-12-08T08:18:14.371Z,92.50
2022-12-08T08:20:42.024Z,92.50
2022-12-08T08:23:10.017Z,92.50
2022-12-08T08:25:37.680Z,92.50
2022-12-08T08:28:05.632Z,92.50
2022-12-08T08:30:35.282Z,92.60
2022-12-08T08:33:03.024Z,92.80
2022-12-08T08:35:31.006Z,92.90
2022-12-08T08:37:58.654Z,92.90
2022-12-08T08:40:26.469Z,92.90
2022-12-08T08:42:57.032Z,92.80
2022-12-08T08:45:25.301Z,92.80
2022-12-08T08:47:53.215Z,92.80
2022-12-08T08:50:21.175Z,92.80
2022-12-08T08:52:49.041Z,92.80
2022-12-08T08:55:20.256Z,92.90
2022-12-08T08:57:47.883Z,93.10
2022-12-08T09:00:15.869Z,93.20
2022-12-08T09:02:43.508Z,93.10
2022-12-08T09:05:11.017Z,93.00
2022-12-08T09:07:38.768Z,93.10
2022-12-08T09:10:06.726Z,93.20
2022-12-08T09:12:34.334Z,93.30
2022-12-08T09:15:01.771Z,93.20
2022-12-08T09:17:29.315Z,93.40
2022-12-08T09:19:56.780Z,93.50
2022-12-08T09:22:24.314Z,93.40
2022-12-08T09:24:51.758Z,93.30
2022-12-08T09:27:19.414Z,93.20
2022-12-08T09:29:46.838Z,93.30
2022-12-08T09:32:14.239Z,93.40
2022-12-08T09:34:41.806Z,93.40
2022-12-08T09:37:09.300Z,93.20
2022-12-08T09:39:36.984Z,93.20
2022-12-08T09:42:06.882Z,93.30
2022-12-08T09:44:54.787Z,93.40
2022-12-08T09:47:23.925Z,93.40
2022-12-08T09:50:00.372Z,93.30
2022-12-08T09:52:31.272Z,93.30
2022-12-08T09:55:03.282Z,93.40
2022-12-08T09:57:32.177Z,93.40
2022-12-08T10:00:03.452Z,93.40
2022-12-08T10:02:33.546Z,93.60
2022-12-08T10:08:03.341Z,93.70
2022-12-08T10:10:41.926Z,93.70
2022-12-08T10:13:12.453Z,93.90
2022-12-08T10:15:41.957Z,93.70
2022-12-08T10:18:17.708Z,93.60
2022-12-08T10:20:49.989Z,93.60
2022-12-08T10:23:26.819Z,93.80
2022-12-08T10:25:58.704Z,93.90
2022-12-08T10:28:26.214Z,93.90
2022-12-08T10:30:53.707Z,94.10
2022-12-08T10:33:22.427Z,94.30
2022-12-08T10:35:56.555Z,94.40
2022-12-08T10:38:44.495Z,94.50
2022-12-08T10:41:11.914Z,94.50
2022-12-08T10:43:39.264Z,94.50
2022-12-08T10:46:39.853Z,94.50
2022-12-08T10:49:39.405Z,94.60
2022-12-08T10:52:23.047Z,94.60
2022-12-08T10:54:54.592Z,94.60
2022-12-08T10:57:28.903Z,94.40
2022-12-08T10:59:57.588Z,94.30
2022-12-08T11:02:25.734Z,94.40
2022-12-08T11:05:10.441Z,94.50
2022-12-08T11:07:41.098Z,94.40
2022-12-08T11:10:17.352Z,94.40
2022-12-08T11:12:45.689Z,94.50
2022-12-08T11:53:34.385Z,95.00
2022-12-08T11:59:36.829Z,95.20
2022-12-08T12:02:16.313Z,95.20
2022-12-08T12:07:34.576Z,95.10
2022-12-08T12:10:55.271Z,95.20
2022-12-08T12:27:28.022Z,95.30
2022-12-08T12:30:03.466Z,95.20
2022-12-08T12:33:14.583Z,95.20
2022-12-08T12:35:43.850Z,95.30
2022-12-08T12:41:38.107Z,95.30
2022-12-08T12:54:21.907Z,95.10
2022-12-08T12:56:49.587Z,95.00
2022-12-08T12:59:33.892Z,95.00
2022-12-08T13:10:22.272Z,95.00
2022-12-08T13:13:12.209Z,95.00
2022-12-08T13:39:20.221Z,94.50
2022-12-08T13:41:57.247Z,94.40
2022-12-08T13:45:18.790Z,94.40
2022-12-08T13:48:13.777Z,94.40
2022-12-08T14:02:53.698Z,94.10
2022-12-08T14:06:03.241Z,94.10
2022-12-08T14:09:01.481Z,93.90
2022-12-08T14:15:18.276Z,93.80
2022-12-08T14:18:00.111Z,93.70
2022-12-08T14:20:30.274Z,93.60
2022-12-08T14:30:28.624Z,93.40
2022-12-08T14:33:17.551Z,93.40
2022-12-08T14:46:03.510Z,93.30
2022-12-08T14:48:34.641Z,93.20
2022-12-08T14:51:07.885Z,93.20
2022-12-08T14:53:56.732Z,93.20
2022-12-08T14:56:26.465Z,93.20
2022-12-08T15:02:55.462Z,93.30
2022-12-08T15:09:01.090Z,93.10
2022-12-08T15:15:14.595Z,93.10
2022-12-08T15:18:02.737Z,93.00
2022-12-08T15:20:35.066Z,92.90
2022-12-08T15:23:29.698Z,92.90
2022-12-08T15:26:18.751Z,93.00
2022-12-08T15:32:00.960Z,92.80
2022-12-08T15:34:32.356Z,92.90
2022-12-08T15:37:06.375Z,92.90
2022-12-08T15:46:19.699Z,93.20
2022-12-08T15:52:38.583Z,93.30
2022-12-08T15:55:06.835Z,93.20
2022-12-08T16:07:41.660Z,93.20
2022-12-08T16:11:19.701Z,93.20
2022-12-08T16:16:43.906Z,92.90
2022-12-08T16:19:57.726Z,92.90
2022-12-08T16:22:52.818Z,92.80
2022-12-08T16:25:19.194Z,92.70
2022-12-08T16:28:05.411Z,92.80
2022-12-08T16:34:29.721Z,92.60
2022-12-08T16:36:57.288Z,92.70
2022-12-08T16:39:24.808Z,92.80
2022-12-08T16:42:11.237Z,92.70
2022-12-08T16:44:40.987Z,92.70
2022-12-08T16:47:09.115Z,92.80
2022-12-08T16:49:39.875Z,92.90
2022-12-08T16:52:07.654Z,93.00
2022-12-08T16:54:35.103Z,93.10
2022-12-08T16:57:02.705Z,93.10
2022-12-08T16:59:31.115Z,93.20
2022-12-08T17:01:58.569Z,93.10
2022-12-08T17:04:33.384Z,93.10
2022-12-08T17:06:59.951Z,93.10
2022-12-08T17:09:28.626Z,93.10
2022-12-08T17:12:01.865Z,93.10
2022-12-08T17:14:48.699Z,93.10
2022-12-08T17:17:16.257Z,93.00
2022-12-08T17:19:43.978Z,92.80
2022-12-08T17:22:12.758Z,92.50
2022-12-08T17:24:40.329Z,92.60
2022-12-08T17:27:07.842Z,92.70
2022-12-08T17:29:35.347Z,92.80
2022-12-08T17:32:02.921Z,92.90
2022-12-08T17:34:30.628Z,93.20
2022-12-08T17:36:58.169Z,93.20
2022-12-08T17:39:25.796Z,93.20
2022-12-08T17:41:53.388Z,93.20
2022-12-08T17:44:20.955Z,93.30
2022-12-08T17:46:52.509Z,93.30
2022-12-08T17:49:22.387Z,93.20
2022-12-08T17:51:51.290Z,93.00
2022-12-08T17:54:19.320Z,93.00
2022-12-08T17:56:47.101Z,93.00
2022-12-08T17:59:15.256Z,92.90
2022-12-08T18:01:53.982Z,92.80
2022-12-08T18:04:21.819Z,92.90
2022-12-08T18:06:49.363Z,93.00
2022-12-08T18:09:17.316Z,93.00
2022-12-08T18:11:46.247Z,93.00
2022-12-08T18:14:14.546Z,93.00
2022-12-08T18:16:43.505Z,93.10
2022-12-08T18:19:11.760Z,93.20
2022-12-08T18:21:39.756Z,93.20
2022-12-08T18:24:08.047Z,93.30
2022-12-08T18:26:35.651Z,93.20
2022-12-08T18:29:03.770Z,93.10
2022-12-08T18:31:31.445Z,93.20
2022-12-08T18:33:58.995Z,93.30
2022-12-08T18:36:26.556Z,93.30
2022-12-08T18:38:54.085Z,93.20
2022-12-08T18:41:24.520Z,93.20
2022-12-08T18:43:53.731Z,93.20
2022-12-08T18:46:21.688Z,93.00
2022-12-08T18:48:50.038Z,92.90
2022-12-08T18:51:19.348Z,92.90
2022-12-08T18:53:47.417Z,93.10
2022-12-08T18:56:21.220Z,93.20
2022-12-08T18:58:48.943Z,93.20
2022-12-08T19:01:16.623Z,93.30
2022-12-08T19:03:58.492Z,93.20
2022-12-08T19:06:32.240Z,93.10
2022-12-08T19:08:59.798Z,93.20
2022-12-08T19:11:28.174Z,93.30
2022-12-08T19:13:55.860Z,93.30
2022-12-08T19:16:23.493Z,93.30
2022-12-08T19:18:51.130Z,93.40
2022-12-08T19:21:19.809Z,93.40
2022-12-08T19:23:47.702Z,93.40
2022-12-08T19:26:15.275Z,93.30
2022-12-08T19:28:43.042Z,93.20
2022-12-08T19:31:11.241Z,92.90
2022-12-08T19:33:38.830Z,92.90
2022-12-08T19:36:07.048Z,92.70
2022-12-08T19:38:53.917Z,92.60
2022-12-08T19:41:40.759Z,92.80
2022-12-08T19:44:34.481Z,93.00
2022-12-08T19:47:05.412Z,93.20
2022-12-08T19:49:33.336Z,93.20
2022-12-08T19:52:01.189Z,93.30
2022-12-08T19:54:28.827Z,93.20
2022-12-08T19:56:56.454Z,93.10
2022-12-08T19:59:26.517Z,93.20
2022-12-08T20:01:56.039Z,93.40
2022-12-08T20:04:24.310Z,93.30
2022-12-08T20:06:52.513Z,93.50
2022-12-08T20:09:20.992Z,93.50
2022-12-08T20:11:48.587Z,93.40
2022-12-08T20:14:16.581Z,93.50
2022-12-08T20:16:44.478Z,93.40
2022-12-08T20:19:12.129Z,93.40
2022-12-08T20:21:39.952Z,93.80
2022-12-08T20:24:07.652Z,93.80
2022-12-08T20:26:35.210Z,93.90
2022-12-08T20:29:02.785Z,94.00
2022-12-08T20:31:31.176Z,94.00
2022-12-08T20:33:58.965Z,93.90
2022-12-08T20:36:26.569Z,93.90
2022-12-08T20:38:55.365Z,93.70
2022-12-08T20:41:23.857Z,93.70
2022-12-08T20:43:51.641Z,93.70
2022-12-08T20:46:20.221Z,93.80
2022-12-08T20:48:47.820Z,93.80
2022-12-08T20:51:16.822Z,93.60
2022-12-08T20:53:44.704Z,93.50
2022-12-08T20:56:16.691Z,93.30
2022-12-08T20:58:44.593Z,93.10
2022-12-08T21:01:13.214Z,93.10
2022-12-08T21:03:41.128Z,93.30
2022-12-08T21:06:09.086Z,93.50
2022-12-08T21:08:37.456Z,93.70
2022-12-08T21:11:05.878Z,93.80
2022-12-08T21:13:33.935Z,93.90
2022-12-08T21:16:01.575Z,94.10
2022-12-08T21:18:31.256Z,94.10
2022-12-08T21:21:04.250Z,94.00
2022-12-08T21:23:31.971Z,93.90
2022-12-08T21:25:59.694Z,93.90
2022-12-08T21:28:27.359Z,93.90
2022-12-08T21:30:55.002Z,93.90
2022-12-08T21:33:22.790Z,93.90
2022-12-08T21:35:50.830Z,93.90
2022-12-08T21:38:18.522Z,93.70
2022-12-08T21:40:46.052Z,93.60
2022-12-08T21:43:13.788Z,93.60
2022-12-08T21:45:41.461Z,93.50
2022-12-08T21:48:11.631Z,93.50
2022-12-08T21:50:39.457Z,93.60
2022-12-08T21:53:07.078Z,94.10
2022-12-08T21:55:34.609Z,94.40
2022-12-08T21:58:02.323Z,94.40
2022-12-08T22:00:29.988Z,94.30
2022-12-08T22:02:58.133Z,94.30
2022-12-08T22:05:26.025Z,94.30
2022-12-08T22:07:53.763Z,94.30
2022-12-08T22:10:21.457Z,94.40
2022-12-08T22:12:49.133Z,94.40
2022-12-08T22:15:16.759Z,94.40
2022-12-08T22:17:44.287Z,94.40
2022-12-08T22:20:13.379Z,94.40
2022-12-08T22:22:40.948Z,94.30
2022-12-08T22:25:12.631Z,94.30
2022-12-08T22:27:41.135Z,94.20
2022-12-08T22:30:09.750Z,94.00
2022-12-08T22:32:37.824Z,94.00
2022-12-08T22:35:05.632Z,94.10
2022-12-08T22:37:33.190Z,94.10
2022-12-08T22:40:00.799Z,94.10
2022-12-08T22:42:28.299Z,94.00
2022-12-08T22:44:55.805Z,94.10
2022-12-08T22:47:23.198Z,94.20
2022-12-08T22:49:50.871Z,94.20
2022-12-08T22:52:18.283Z,94.30
2022-12-08T22:54:45.700Z,94.40
2022-12-08T22:57:13.232Z,94.40
2022-12-08T22:59:41.056Z,94.40
2022-12-08T23:02:08.809Z,94.40
2022-12-08T23:04:36.450Z,94.40
2022-12-08T23:07:04.363Z,94.40
2022-12-08T23:09:31.794Z,94.40
2022-12-08T23:11:59.204Z,94.40
2022-12-08T23:14:26.939Z,94.40
2022-12-08T23:16:54.397Z,94.40
2022-12-08T23:19:21.911Z,94.30
2022-12-08T23:21:49.733Z,94.30
2022-12-08T23:24:17.447Z,94.20
2022-12-08T23:26:44.950Z,94.20
2022-12-08T23:29:12.471Z,94.30
2022-12-08T23:31:40.248Z,94.40
2022-12-08T23:34:07.706Z,94.50
2022-12-08T23:36:35.265Z,94.50
2022-12-08T23:39:02.951Z,94.60
2022-12-08T23:41:30.349Z,94.70
2022-12-08T23:43:57.967Z,94.70
2022-12-08T23:46:25.715Z,94.70
2022-12-08T23:48:53.338Z,94.70
2022-12-08T23:51:20.794Z,94.70
2022-12-08T23:53:48.153Z,94.70
2022-12-08T23:56:16.881Z,94.60
2022-12-08T23:58:44.654Z,94.60
